createdAt,value
2019-05-21T00:00:26.972Z,14.13
2019-05-21T00:03:15.123Z,14.40
2019-05-21T00:05:43.814Z,15.37
2019-05-21T00:08:12.357Z,13.27
2019-05-21T00:10:40.926Z,14.47
2019-05-21T00:13:09.491Z,16.57
2019-05-21T00:15:37.869Z,16.30
2019-05-21T00:18:06.615Z,17.47
2019-05-21T00:20:35.135Z,17.40
2019-05-21T00:23:03.624Z,15.87
2019-05-21T00:25:32.093Z,18.13
2019-05-21T00:28:12.398Z,18.83
2019-05-21T00:30:58.801Z,19.00
2019-05-21T00:33:45.439Z,18.73
2019-05-21T00:36:33.622Z,18.50
2019-05-21T00:39:26.430Z,17.47
2019-05-21T00:42:03.370Z,18.83
2019-05-21T00:44:33.205Z,17.23
2019-05-21T00:47:02.057Z,18.17
2019-05-21T00:49:31.010Z,17.17
2019-05-21T00:52:07.992Z,18.63
2019-05-21T00:54:31.325Z,19.43
2019-05-21T00:57:00.054Z,20.70
2019-05-21T00:59:28.918Z,19.30
2019-05-21T01:01:57.451Z,19.23
2019-05-21T01:04:26.338Z,20.63
2019-05-21T01:06:55.255Z,18.83
2019-05-21T01:09:23.969Z,15.93
2019-05-21T01:11:53.916Z,17.47
2019-05-21T01:14:27.346Z,17.70
2019-05-21T01:16:56.249Z,17.93
2019-05-21T01:19:24.653Z,16.30
2019-05-21T01:21:53.412Z,16.33
2019-05-21T01:24:27.635Z,16.73
2019-05-21T01:26:56.319Z,17.77
2019-05-21T01:29:25.289Z,17.17
2019-05-21T01:31:53.915Z,17.50
2019-05-21T01:34:23.150Z,18.87
2019-05-21T01:36:52.278Z,17.80
2019-05-21T01:39:26.301Z,17.03
2019-05-21T01:41:55.118Z,17.17
2019-05-21T01:44:23.977Z,15.73
2019-05-21T01:46:53.324Z,16.37
2019-05-21T01:49:25.417Z,15.73
2019-05-21T01:52:00.297Z,16.33
2019-05-21T01:54:29.443Z,14.53
2019-05-21T01:57:00.788Z,13.63
2019-05-21T01:59:29.885Z,15.03
2019-05-21T02:01:58.529Z,14.00
2019-05-21T02:04:28.421Z,13.67
2019-05-21T02:06:57.337Z,13.50
2019-05-21T02:09:26.109Z,15.87
2019-05-21T02:11:57.778Z,14.93
2019-05-21T02:14:44.095Z,15.83
2019-05-21T02:17:19.658Z,16.90
2019-05-21T02:19:51.053Z,15.33
2019-05-21T02:22:19.655Z,15.37
2019-05-21T02:25:29.095Z,17.97
2019-05-21T02:28:11.523Z,17.90
2019-05-21T02:30:43.348Z,18.07
2019-05-21T02:33:13.823Z,18.60
2019-05-21T02:35:54.157Z,16.67
2019-05-21T02:38:40.514Z,18.03
2019-05-21T02:41:10.867Z,18.63
2019-05-21T02:44:06.800Z,18.30
2019-05-21T02:46:36.011Z,15.63
2019-05-21T02:49:09.903Z,15.87
2019-05-21T02:51:44.016Z,16.43
2019-05-21T02:54:10.746Z,14.23
2019-05-21T02:56:43.420Z,15.00
2019-05-21T02:59:34.149Z,15.30
2019-05-21T03:02:42.140Z,14.67
2019-05-21T03:05:12.729Z,13.57
2019-05-21T03:07:42.058Z,13.30
2019-05-21T03:10:16.299Z,13.60
2019-05-21T03:12:58.473Z,12.83
2019-05-21T03:15:31.393Z,12.73
2019-05-21T03:18:00.979Z,13.17
2019-05-21T03:20:36.862Z,14.00
2019-05-21T03:23:08.617Z,13.77
2019-05-21T03:26:14.250Z,14.80
2019-05-21T03:31:27.679Z,14.43
2019-05-21T03:34:11.324Z,14.83
2019-05-21T03:37:14.335Z,14.33
2019-05-21T03:39:32.580Z,15.93
2019-05-21T03:42:13.123Z,16.83
2019-05-21T03:44:58.347Z,17.60
2019-05-21T03:50:17.692Z,20.23
2019-05-21T03:53:05.719Z,21.80
2019-05-21T03:58:41.603Z,25.10
2019-05-21T04:01:12.023Z,24.30
2019-05-21T04:04:01.718Z,24.17
2019-05-21T04:06:31.567Z,23.57
2019-05-21T04:09:06.244Z,24.37
2019-05-21T04:11:42.416Z,24.07
2019-05-21T04:14:15.408Z,24.87
2019-05-21T04:17:13.298Z,23.83
2019-05-21T04:20:09.209Z,25.10
2019-05-21T04:22:52.562Z,26.27
2019-05-21T04:25:45.124Z,24.00
2019-05-21T04:28:33.689Z,24.87
2019-05-21T04:31:37.243Z,26.13
2019-05-21T04:34:37.439Z,25.80
2019-05-21T04:37:20.983Z,25.63
2019-05-21T04:39:50.100Z,24.80
2019-05-21T04:42:22.340Z,25.27
2019-05-21T04:44:51.334Z,23.77
2019-05-21T04:47:24.094Z,24.97
2019-05-21T04:49:52.974Z,23.87
2019-05-21T04:52:27.595Z,25.13
2019-05-21T04:54:56.607Z,22.53
2019-05-21T04:57:25.511Z,23.40
2019-05-21T05:00:05.162Z,24.47
2019-05-21T05:02:35.315Z,24.37
2019-05-21T05:05:04.504Z,23.97
2019-05-21T05:07:36.417Z,24.63
2019-05-21T05:10:07.969Z,26.10
2019-05-21T05:12:36.489Z,26.63
2019-05-21T05:15:05.453Z,28.37
2019-05-21T05:17:34.117Z,26.53
2019-05-21T05:20:02.980Z,25.90
2019-05-21T05:22:34.979Z,25.37
2019-05-21T05:25:03.767Z,24.50
2019-05-21T05:27:35.679Z,24.03
2019-05-21T05:30:35.946Z,23.50
2019-05-21T05:33:05.217Z,24.03
2019-05-21T05:35:34.697Z,25.90
2019-05-21T05:38:15.536Z,25.30
2019-05-21T05:40:47.138Z,22.30
2019-05-21T05:43:15.665Z,23.90
2019-05-21T05:45:44.762Z,21.47
2019-05-21T05:48:27.228Z,23.53
2019-05-21T05:50:57.374Z,22.50
2019-05-21T05:57:57.025Z,23.50
2019-05-21T06:00:54.510Z,23.47
2019-05-21T06:04:08.466Z,22.40
2019-05-21T06:07:17.828Z,21.87
2019-05-21T06:10:22.662Z,21.37
2019-05-21T06:12:51.327Z,20.67
2019-05-21T06:15:39.207Z,17.83
2019-05-21T06:18:10.068Z,20.20
2019-05-21T06:20:38.656Z,20.33
2019-05-21T06:23:12.248Z,19.10
2019-05-21T06:25:50.491Z,20.00
2019-05-21T06:28:19.174Z,19.63
2019-05-21T06:30:48.081Z,18.63
2019-05-21T06:33:16.936Z,19.33
2019-05-21T06:35:50.884Z,21.07
2019-05-21T06:38:19.903Z,19.90
2019-05-21T06:40:48.440Z,22.07
2019-05-21T06:43:20.478Z,21.90
2019-05-21T06:45:49.177Z,22.43
2019-05-21T06:48:18.693Z,22.03
2019-05-21T06:50:47.226Z,20.57
2019-05-21T06:53:15.836Z,20.00
2019-05-21T06:55:44.562Z,20.57
2019-05-21T06:58:13.344Z,20.07
2019-05-21T07:00:42.243Z,19.30
2019-05-21T07:03:11.084Z,17.67
2019-05-21T07:05:56.068Z,18.00
2019-05-21T07:08:10.176Z,18.37
2019-05-21T07:10:38.725Z,17.20
2019-05-21T07:13:07.416Z,15.03
2019-05-21T07:15:36.101Z,15.80
2019-05-21T07:18:04.893Z,14.70
2019-05-21T07:20:33.573Z,12.33
2019-05-21T07:23:02.105Z,10.93
2019-05-21T07:25:30.690Z,12.57
2019-05-21T07:27:59.526Z,12.20
2019-05-21T07:30:29.403Z,12.43
2019-05-21T07:32:58.320Z,12.43
2019-05-21T07:35:28.989Z,12.53
2019-05-21T07:37:57.567Z,11.77
2019-05-21T07:40:26.277Z,10.47
2019-05-21T07:42:54.957Z,10.67
2019-05-21T07:45:23.678Z,10.70
2019-05-21T07:47:52.334Z,11.00
2019-05-21T07:50:21.402Z,9.73
2019-05-21T07:52:50.250Z,10.77
2019-05-21T07:55:18.847Z,9.33
2019-05-21T07:57:47.488Z,9.97
2019-05-21T08:00:16.101Z,9.90
2019-05-21T08:02:44.684Z,9.73
2019-05-21T08:05:13.392Z,8.60
2019-05-21T08:07:45.091Z,9.50
2019-05-21T08:10:13.482Z,9.70
2019-05-21T08:12:42.034Z,10.33
2019-05-21T08:15:10.981Z,9.97
2019-05-21T08:17:39.739Z,8.77
2019-05-21T08:20:10.597Z,8.30
2019-05-21T08:22:39.549Z,8.97
2019-05-21T08:25:08.154Z,9.23
2019-05-21T08:27:36.699Z,8.70
2019-05-21T08:30:05.208Z,9.27
2019-05-21T08:32:33.620Z,8.00
2019-05-21T08:35:02.357Z,8.13
2019-05-21T08:37:32.439Z,7.87
2019-05-21T08:40:01.012Z,7.70
2019-05-21T08:42:29.489Z,5.83
2019-05-21T08:44:57.831Z,6.30
2019-05-21T08:47:26.352Z,5.90
2019-05-21T08:49:54.813Z,6.60
2019-05-21T08:52:23.321Z,6.03
2019-05-21T08:54:55.927Z,6.33
2019-05-21T08:57:22.063Z,6.37
2019-05-21T08:59:50.561Z,5.97
2019-05-21T09:02:19.298Z,6.13
2019-05-21T09:04:51.621Z,6.33
2019-05-21T09:07:20.204Z,7.17
2019-05-21T09:09:51.311Z,6.80
2019-05-21T09:12:21.665Z,6.73
2019-05-21T09:14:50.846Z,5.77
2019-05-21T09:17:45.233Z,7.03
2019-05-21T09:20:15.344Z,6.70
2019-05-21T09:22:59.152Z,6.60
2019-05-21T09:28:42.797Z,5.87
2019-05-21T09:31:20.828Z,6.10
2019-05-21T09:33:54.661Z,5.40
2019-05-21T09:36:26.623Z,5.93
2019-05-21T09:38:55.231Z,5.97
2019-05-21T09:41:25.868Z,6.37
2019-05-21T09:43:54.928Z,5.90
2019-05-21T09:46:23.687Z,5.97
2019-05-21T09:48:54.278Z,6.30
2019-05-21T09:51:22.774Z,5.73
2019-05-21T09:53:51.283Z,5.27
2019-05-21T09:56:37.402Z,5.80
2019-05-21T09:59:25.234Z,5.93
2019-05-21T10:01:59.548Z,6.03
2019-05-21T10:04:28.356Z,5.53
2019-05-21T10:06:57.202Z,5.30
2019-05-21T10:09:35.817Z,5.83
2019-05-21T10:12:25.873Z,5.60
2019-05-21T10:14:54.822Z,5.87
2019-05-21T10:17:26.496Z,6.03
2019-05-21T10:19:58.642Z,6.63
2019-05-21T10:22:26.076Z,5.77
2019-05-21T10:24:54.605Z,6.50
2019-05-21T10:27:23.152Z,6.70
2019-05-21T10:29:51.872Z,6.60
2019-05-21T10:32:21.461Z,5.17
2019-05-21T10:34:50.080Z,5.83
2019-05-21T10:37:18.896Z,5.77
2019-05-21T10:39:54.520Z,5.93
2019-05-21T10:42:23.131Z,5.77
2019-05-21T10:44:51.716Z,5.23
2019-05-21T10:47:20.222Z,6.27
2019-05-21T10:49:48.985Z,6.20
2019-05-21T10:52:23.542Z,6.60
2019-05-21T10:54:52.288Z,6.37
2019-05-21T10:57:24.757Z,5.90
2019-05-21T10:59:53.468Z,6.93
2019-05-21T11:02:40.166Z,6.50
2019-05-21T11:05:18.524Z,5.70
2019-05-21T11:07:47.039Z,6.70
2019-05-21T11:10:19.104Z,6.57
2019-05-21T11:12:47.784Z,6.77
2019-05-21T11:15:16.781Z,6.60
2019-05-21T11:17:53.682Z,6.00
2019-05-21T11:20:19.644Z,6.53
2019-05-21T11:22:48.676Z,6.37
2019-05-21T11:25:17.277Z,6.67
2019-05-21T11:27:45.973Z,6.30
2019-05-21T11:30:14.740Z,6.07
2019-05-21T11:32:47.678Z,6.87
2019-05-21T11:35:13.752Z,5.87
2019-05-21T11:37:42.498Z,5.63
2019-05-21T11:40:14.359Z,5.10
2019-05-21T11:42:43.432Z,5.10
2019-05-21T11:45:12.315Z,5.87
2019-05-21T11:47:40.992Z,5.83
2019-05-21T11:50:09.423Z,5.00
2019-05-21T11:52:40.207Z,5.87
2019-05-21T11:55:08.802Z,5.67
2019-05-21T11:57:37.624Z,6.50
2019-05-21T12:00:06.434Z,6.23
2019-05-21T12:02:35.412Z,6.30
2019-05-21T12:05:04.321Z,7.27
2019-05-21T12:07:32.977Z,6.63
2019-05-21T12:10:01.794Z,7.33
2019-05-21T12:12:31.907Z,7.67
2019-05-21T12:15:03.413Z,7.43
2019-05-21T12:17:33.989Z,7.80
2019-05-21T12:20:05.312Z,8.43
2019-05-21T12:22:34.019Z,7.30
2019-05-21T12:25:02.874Z,7.70
2019-05-21T12:27:31.723Z,8.00
2019-05-21T12:30:00.401Z,7.30
2019-05-21T12:32:31.629Z,7.47
2019-05-21T12:35:00.154Z,7.40
2019-05-21T12:37:32.604Z,7.63
2019-05-21T12:40:04.913Z,7.43
2019-05-21T12:42:33.922Z,8.47
2019-05-21T12:45:02.782Z,7.33
2019-05-21T12:47:31.631Z,7.33
2019-05-21T12:50:00.434Z,7.53
2019-05-21T12:52:33.799Z,7.67
2019-05-21T12:55:02.190Z,7.77
2019-05-21T12:57:30.935Z,7.27
2019-05-21T12:59:59.848Z,7.70
2019-05-21T13:02:30.934Z,7.10
2019-05-21T13:04:59.816Z,7.10
2019-05-21T13:07:30.443Z,7.97
2019-05-21T13:09:59.299Z,7.63
2019-05-21T13:12:27.982Z,8.40
2019-05-21T13:14:57.799Z,8.33
2019-05-21T13:17:26.902Z,7.90
2019-05-21T13:19:56.110Z,7.93
2019-05-21T13:22:32.929Z,7.93
2019-05-21T13:25:09.694Z,8.00
2019-05-21T13:27:38.472Z,7.60
2019-05-21T13:30:08.193Z,8.30
2019-05-21T13:32:39.580Z,7.80
2019-05-21T13:35:08.228Z,6.20
2019-05-21T13:37:37.386Z,7.97
2019-05-21T13:40:07.071Z,8.30
2019-05-21T13:42:36.161Z,8.33
2019-05-21T13:45:05.724Z,8.53
2019-05-21T13:47:35.888Z,9.07
2019-05-21T13:50:05.225Z,7.03
2019-05-21T13:52:34.289Z,8.33
2019-05-21T13:55:06.738Z,8.67
2019-05-21T13:57:40.276Z,8.10
2019-05-21T14:00:28.750Z,8.87
2019-05-21T14:02:57.932Z,8.77
2019-05-21T14:05:27.085Z,8.70
2019-05-21T14:07:55.932Z,9.83
2019-05-21T14:10:24.880Z,8.90
2019-05-21T14:12:58.096Z,8.70
2019-05-21T14:15:52.107Z,8.47
2019-05-21T14:18:28.445Z,8.20
2019-05-21T14:21:12.144Z,8.60
2019-05-21T14:23:48.132Z,8.43
2019-05-21T14:26:30.367Z,8.50
2019-05-21T14:38:00.236Z,7.57
2019-05-21T14:40:34.158Z,8.60
2019-05-21T14:43:38.020Z,9.67
2019-05-21T14:49:19.999Z,8.10
2019-05-21T14:51:50.223Z,8.73
2019-05-21T14:54:29.969Z,8.50
2019-05-21T14:57:07.864Z,9.33
2019-05-21T14:59:42.225Z,9.57
2019-05-21T15:02:18.103Z,8.90
2019-05-21T15:05:05.878Z,8.47
2019-05-21T15:07:49.801Z,9.23
2019-05-21T15:10:47.262Z,8.77
2019-05-21T15:13:37.127Z,10.10
2019-05-21T15:41:12.340Z,8.70
2019-05-21T15:43:51.818Z,9.50
2019-05-21T15:47:37.511Z,10.00
2019-05-21T15:49:42.327Z,9.80
2019-05-21T15:58:42.756Z,9.10
2019-05-21T16:01:13.579Z,8.80
2019-05-21T16:03:48.241Z,8.83
2019-05-21T16:06:18.545Z,8.80
2019-05-21T16:08:49.179Z,8.33
2019-05-21T16:11:28.667Z,8.03
2019-05-21T16:14:05.108Z,8.80
2019-05-21T16:16:30.462Z,8.50
2019-05-21T16:18:59.270Z,8.77
2019-05-21T16:21:28.102Z,9.40
2019-05-21T16:56:08.570Z,6.10
2019-05-21T17:01:11.995Z,6.20
2019-05-21T17:03:59.976Z,4.90
2019-05-21T17:06:54.272Z,6.30
2019-05-21T17:09:58.399Z,6.57
2019-05-21T17:12:28.414Z,6.93
2019-05-21T17:15:01.148Z,7.03
2019-05-21T17:17:34.096Z,7.50
2019-05-21T17:20:03.886Z,7.40
2019-05-21T17:22:35.442Z,7.37
2019-05-21T17:25:19.388Z,6.60
2019-05-21T17:28:18.894Z,6.77
2019-05-21T17:30:51.124Z,6.90
2019-05-21T17:33:33.589Z,7.17
2019-05-21T17:36:09.008Z,7.47
2019-05-21T17:39:49.271Z,7.20
2019-05-21T17:42:28.536Z,7.03
2019-05-21T17:48:10.431Z,7.07
2019-05-21T17:50:40.319Z,7.30
2019-05-21T18:05:25.464Z,7.50
2019-05-21T18:08:01.388Z,6.70
2019-05-21T18:10:41.227Z,7.00
2019-05-21T18:13:13.704Z,6.37
2019-05-21T18:15:49.149Z,6.50
2019-05-21T18:18:30.773Z,5.93
2019-05-21T18:21:07.473Z,7.07
2019-05-21T18:23:54.656Z,7.23
2019-05-21T18:26:31.144Z,7.50
2019-05-21T18:29:07.168Z,8.10
2019-05-21T18:31:38.147Z,7.83
2019-05-21T18:34:14.382Z,7.57
2019-05-21T18:36:47.666Z,7.90
2019-05-21T18:39:21.657Z,7.80
2019-05-21T18:41:54.381Z,7.83
2019-05-21T18:44:37.967Z,6.77
2019-05-21T18:47:30.254Z,8.40
2019-05-21T18:50:33.343Z,8.10
2019-05-21T18:52:42.437Z,7.47
2019-05-21T18:55:12.357Z,8.07
2019-05-21T18:57:45.169Z,8.57
2019-05-21T19:00:15.470Z,9.37
2019-05-21T19:02:56.932Z,9.73
2019-05-21T19:05:27.136Z,10.00
2019-05-21T19:07:59.738Z,11.17
2019-05-21T19:10:31.477Z,11.13
2019-05-21T19:13:03.641Z,10.40
2019-05-21T19:15:36.413Z,11.43
2019-05-21T19:18:05.620Z,11.43
2019-05-21T19:20:35.578Z,10.63
2019-05-21T19:23:09.862Z,10.30
2019-05-21T19:25:45.658Z,11.20
2019-05-21T19:28:21.370Z,11.37
2019-05-21T19:30:58.935Z,10.13
2019-05-21T19:33:30.051Z,11.13
2019-05-21T19:36:38.676Z,11.70
2019-05-21T19:39:17.748Z,11.37
2019-05-21T19:41:46.371Z,12.07
2019-05-21T19:44:15.383Z,11.10
2019-05-21T19:46:46.266Z,11.93
2019-05-21T19:49:15.434Z,11.97
2019-05-21T19:51:47.268Z,12.50
2019-05-21T19:54:25.618Z,11.57
2019-05-21T19:56:54.658Z,10.83
2019-05-21T19:59:25.715Z,10.50
2019-05-21T20:01:56.134Z,10.00
2019-05-21T20:04:46.234Z,8.93
2019-05-21T20:07:27.061Z,9.23
2019-05-21T20:10:04.808Z,9.17
2019-05-21T20:12:37.058Z,9.13
2019-05-21T20:15:09.573Z,9.43
2019-05-21T20:18:06.446Z,9.43
2019-05-21T20:35:44.944Z,9.90
2019-05-21T20:38:18.991Z,10.23
2019-05-21T20:41:17.825Z,9.63
2019-05-21T20:44:01.055Z,9.37
2019-05-21T20:47:01.278Z,9.90
2019-05-21T20:49:53.823Z,9.23
2019-05-21T20:52:44.124Z,10.13
2019-05-21T20:55:13.900Z,9.67
2019-05-21T21:00:52.435Z,9.17
2019-05-21T21:06:35.285Z,9.87
2019-05-21T21:08:55.078Z,9.23
2019-05-21T21:12:05.300Z,10.20
2019-05-21T21:14:43.529Z,10.10
2019-05-21T21:17:14.154Z,9.57
2019-05-21T21:19:47.056Z,10.10
2019-05-21T21:22:16.017Z,10.20
2019-05-21T21:24:45.076Z,10.40
2019-05-21T21:27:19.779Z,9.07
2019-05-21T21:29:50.516Z,10.57
2019-05-21T21:32:19.666Z,9.80
2019-05-21T21:34:48.462Z,9.83
2019-05-21T21:37:22.164Z,10.30
2019-05-21T21:39:51.226Z,9.03
2019-05-21T21:42:19.948Z,8.90
2019-05-21T21:44:59.120Z,9.63
2019-05-21T21:47:42.533Z,9.43
2019-05-21T21:50:12.536Z,9.13
2019-05-21T21:52:41.778Z,8.97
2019-05-21T21:55:13.593Z,8.97
2019-05-21T21:57:42.884Z,8.40
2019-05-21T22:00:22.869Z,9.67
2019-05-21T22:02:52.332Z,8.43
2019-05-21T22:05:32.583Z,7.97
2019-05-21T22:08:01.638Z,8.77
2019-05-21T22:10:30.516Z,8.30
2019-05-21T22:13:00.977Z,7.60
2019-05-21T22:15:38.088Z,7.70
2019-05-21T22:18:07.780Z,7.33
2019-05-21T22:20:39.513Z,7.33
2019-05-21T22:23:08.593Z,8.00
2019-05-21T22:25:37.701Z,7.93
2019-05-21T22:28:06.631Z,7.27
2019-05-21T22:30:43.285Z,8.27
2019-05-21T22:33:12.805Z,6.57
2019-05-21T22:35:44.472Z,7.20
2019-05-21T22:38:13.156Z,7.63
2019-05-21T22:40:42.508Z,7.40
2019-05-21T22:43:14.290Z,8.40
2019-05-21T22:45:43.131Z,7.97
2019-05-21T22:48:12.534Z,8.53
2019-05-21T22:50:41.454Z,8.50
2019-05-21T22:53:10.319Z,8.57
2019-05-21T22:55:39.665Z,8.20
2019-05-21T22:58:10.386Z,8.80
2019-05-21T23:00:39.955Z,9.03
2019-05-21T23:03:18.544Z,9.13
2019-05-21T23:05:55.709Z,8.10
2019-05-21T23:08:25.549Z,8.57
2019-05-21T23:10:56.659Z,7.50
2019-05-21T23:13:28.924Z,8.00
2019-05-21T23:16:01.889Z,7.93
2019-05-21T23:18:30.869Z,8.77
2019-05-21T23:21:00.270Z,9.07
2019-05-21T23:23:31.209Z,8.33
2019-05-21T23:26:01.284Z,8.73
2019-05-21T23:28:30.970Z,8.63
2019-05-21T23:31:00.241Z,8.43
2019-05-21T23:33:28.986Z,8.80
2019-05-21T23:35:58.510Z,9.20
2019-05-21T23:38:27.848Z,8.70
2019-05-21T23:40:56.633Z,8.10
2019-05-21T23:43:26.406Z,7.27
2019-05-21T23:45:55.572Z,7.27
2019-05-21T23:48:24.728Z,6.57
2019-05-21T23:50:54.150Z,6.63
2019-05-21T23:53:23.266Z,6.60
2019-05-21T23:55:52.129Z,6.83
2019-05-21T23:58:20.819Z,6.83
